V ZIMOWY CROSS BOCIANA - BIEG 10KM
V Zimowy Cross Bociana
Organizator : Nadleśnictwo Czarnobór
Data : 2022-05-14
Miejsce : Czarnobór
Dystans : 10 km
Zgłoszonych : 60
Wystartowało : 40
Nie ukończyło : 0
Ukończyło : 40
Na trasie : 0
Pełne wyniki :
Uproszczone :
Klasyfikacje w punktach pomiarowych: Start | Meta
Klasyfikacje wg kategorii: Wszyscy | OPEN -K | OPEN -M
Klasyfikacja wg czasu brutto. Wyniki nieoficjalne !!!
MscZawodnikNumerKlubMiejscowośćKrajKategoriaMkatK/MCzas
netto
10km
Różn.Tempo
min/km
Tempo
km/h
     
1SZYMAŃSKI Sylwester 153SZCZECINECCY BIEGACZESZCZECINEKOPEN -M1M 100:37:34.50 3:4516,0
2SZACHO-GŁUCHOWICZ Ryszard 114SYPNIEWOOPEN -M2M 200:39:31.95+00:01:573:5715,2
3LASAK Konrad 61SZCZECINEKOPEN -M3M 300:39:45.95+00:02:113:5815,1
4WOJTALIK Łukasz 136POŁCZYN-ZDRÓJOPEN -M4M 400:41:02.65+00:03:284:0614,6
5MICHAŁOWSKI Piotr 74PRZECHLEWOOPEN -M5M 500:41:40.65+00:04:064:1014,4
6NOCEK Paweł 79SZCZECINEKOPEN -M6M 600:43:13.20+00:05:384:1913,9
7ZIELIŃSKI Grzegorz 140TUCZNOOPEN -M7M 700:44:42.65+00:07:084:2813,4
8HYBNER Marcin 36CZARNEOPEN -M8M 800:45:06.15+00:07:314:3013,3
9WACHOWICZ Krzysztof 129BUSHCRAFT SZCZECINEKSZCZECINEKOPEN -M9M 900:45:32.70+00:07:584:3313,2
10MIECZKOWSKI Marcin 75NADLEŚNICTWO CZARNOBÓRNOBLINYOPEN -M10M 1000:45:57.65+00:08:234:3513,1
11MAZUR Tomasz 71SZCZECINEKOPEN -M11M 1100:46:36.05+00:09:014:3912,9
12JANKOWSKI Mariusz 39TEAMBIEGOWYSZCZECINEKSZCZECINEKOPEN -M12M 1200:46:41.80+00:09:074:4012,9
13URBAŃSKI Tomasz 128BIAŁOGARD BIEGABIAŁOGARDOPEN -M13M 1300:48:05.70+00:10:314:4812,5
14PROKOPOWICZ Marcin 923:33 TEAMJASTROWIEOPEN -M14M 1400:48:55.25+00:11:204:5312,3
15PODLECKA Agnieszka 90PIŁAOPEN -K1K 100:48:58.30+00:11:234:5312,3
16KOŁODZIEJCZAK Grzegorz 53TUROWOOPEN -M15M 1500:48:58.50+00:11:244:5312,3
17PĘKAŁA Piotr 85SP MANOWO SOSW KOSZALINKOSZALINOPEN -M16M 1600:49:02.65+00:11:284:5412,2
18GAŁAN Leszek 28ZŁOCIENIECOPEN -M17M 1700:49:21.20+00:11:464:5612,2
19KOCZWARA Radosław 51CROSS TEAM SZCZECINEKSZCZECINEKOPEN -M18M 1800:49:28.65+00:11:544:5612,1
20JANKOWSKA Monika 150CROSSTEAM SZCZECINEKOPEN -K2K 200:49:31.30+00:11:564:5712,1
21PRZYBYŁOWICZ Małgorzata 93SZCZECINECCY BIEGACZESZCZECINEKOPEN -K3K 300:49:47.05+00:12:124:5812,1
22HUDANIEC Paweł 35SZCZECINEKOPEN -M19M 1900:51:03.20+00:13:285:0611,8
23SZKOPEK Krzysztof 116SZCZECINEKOPEN -M20M 2000:51:04.65+00:13:305:0611,7
24KUICH Piotr 58LILLSPORTJÓZEFOWOOPEN -M21M 2100:51:27.55+00:13:5310:175,8
25SOCHA Marcin 107POD KOGUTEMSZCZECINEKOPEN -M22M 2200:51:34.00+00:13:595:0911,6
26WINKOWSKI Marek 134GWDA MAŁAOPEN -M23M 2300:51:36.55+00:14:025:0911,6
27SOŁTYS Zbigniew 151KSW SZCZECINEKOPEN -M24M 2400:52:06.80+00:14:325:1211,5
28POLGUJ Piotr Roman 91PARKRUN SZCZECINEKSZCZECINEKOPEN -M25M 2500:54:07.10+00:16:325:2411,1
29GALICKI Robert 26BOBOLICEOPEN -M26M 2600:54:53.50+00:17:195:2910,9
30WINKOWSKI Andrzej 135ŻELICEOPEN -M27M 2700:55:19.80+00:17:455:3110,8
31CZAJA Piotr 16CROSSTEAM SZCZECINEKSZCZECINEKOPEN -M28M 2800:56:44.55+00:19:105:4010,6
32GAWORECKI Sławomir 20KLUB SPORTOWY HUSARIA SZCZECINEKJELENINOOPEN -M29M 2900:56:44.60+00:19:105:4010,6
33SOKÓŁ Monika 110SZCZECINEKOPEN -K4K 400:58:29.95+00:20:555:5010,3
34KUTEK Marta 60SPORTOWY CZŁUCHÓWNOWE GRONOWOOPEN -K5K 500:59:53.65+00:22:195:5910,0
34OSMYK Mateusz 82WAŁCZOPEN -M30M 3000:59:53.65+00:22:195:5910,0
36GAŁAN Joanna 27ZŁOCIENIECOPEN -K6K 601:00:13.35+00:22:386:0110,0
37LUDEWICZ Dorota 63AKADEMIA START JASTROWIEJASTROWIEOPEN -K7K 701:03:13.90+00:25:396:199,5
38KISIEL Michał 141TEAM BIEGOWY SZCZECINEKSZCZECINEKOPEN -M31M 3101:03:14.00+00:25:396:199,5
39RUDNICKA Monika 143TEAM BIEGOWY SZCZECINEKSZCZECINEKOPEN -K8K 801:07:42.60+00:30:086:468,9
40WDOWIAK Katarzyna 46TEAM BIEGOWY SZCZECINEKSZCZECINEKOPEN -K9K 901:07:43.05+00:30:086:468,9
Znaleziono 40 wynik(ów)